Time;durP1;ratioP1;P1;durP2;ratioP2;P2;SDS_P1;SDS_P2;PMS_P1;PMS_P2;Temp;Humidity;BMP_temperature;BMP_pressure;BME280_temperature;BME280_humidity;BME280_pressure;Samples;Min_cycle;Max_cycle;Signal;HPM_P1;HPM_P2
2020/12/19 00:02:06;;;;;;;44.40;20.50;;;3.20;99.90;;;;;;5112635;28;20287;-79
2020/12/19 00:04:33;;;;;;;44.45;19.63;;;3.20;99.90;;;;;;5118643;28;20206;-80
2020/12/19 00:06:59;;;;;;;39.25;21.67;;;3.20;99.90;;;;;;5130653;27;20213;-81
2020/12/19 00:09:26;;;;;;;44.85;21.67;;;2.90;99.90;;;;;;5126687;27;20253;-79
2020/12/19 00:11:52;;;;;;;63.47;24.25;;;2.90;99.90;;;;;;5115761;28;20232;-79
2020/12/19 00:14:20;;;;;;;106.88;25.92;;;2.80;99.90;;;;;;5115612;28;20591;-80
2020/12/19 00:16:47;;;;;;;34.28;18.90;;;2.70;99.90;;;;;;5115575;28;20228;-79
2020/12/19 00:19:13;;;;;;;34.22;19.77;;;2.80;99.90;;;;;;5126657;27;20211;-78
2020/12/19 00:21:39;;;;;;;43.83;21.35;;;2.90;99.90;;;;;;5124327;27;20288;-79
2020/12/19 00:24:07;;;;;;;33.08;18.98;;;3.00;99.90;;;;;;5128977;27;20213;-79
2020/12/19 00:26:35;;;;;;;28.50;18.08;;;3.00;99.90;;;;;;5122793;28;20220;-80
2020/12/19 00:29:02;;;;;;;41.50;18.85;;;3.00;99.90;;;;;;5113395;28;20212;-80
2020/12/19 00:31:29;;;;;;;27.92;17.10;;;3.10;99.90;;;;;;5111035;28;20262;-79
2020/12/19 00:33:56;;;;;;;38.00;18.77;;;3.10;99.90;;;;;;5098876;28;20697;-79
2020/12/19 00:36:22;;;;;;;32.38;19.40;;;3.20;99.90;;;;;;5098257;28;20252;-78
2020/12/19 00:38:50;;;;;;;42.53;20.52;;;3.30;99.90;;;;;;5099338;28;20665;-79
2020/12/19 00:41:18;;;;;;;36.10;20.25;;;3.00;99.90;;;;;;5100473;28;20712;-80
2020/12/19 00:43:44;;;;;;;36.03;19.98;;;3.00;99.90;;;;;;5100169;28;20232;-78
2020/12/19 00:46:12;;;;;;;43.42;21.92;;;2.90;99.90;;;;;;5099912;28;20232;-79
2020/12/19 00:48:40;;;;;;;41.53;21.42;;;2.90;99.90;;;;;;5101077;28;20225;-79
2020/12/19 00:51:12;;;;;;;30.52;19.80;;;2.80;99.90;;;;;;5100951;28;20201;-78
2020/12/19 00:53:38;;;;;;;28.95;17.88;;;2.80;99.90;;;;;;5101736;28;20304;-78
2020/12/19 00:56:04;;;;;;;28.17;16.92;;;3.00;99.90;;;;;;5101388;28;20255;-79
2020/12/19 00:58:31;;;;;;;27.42;16.27;;;3.10;99.90;;;;;;5100568;28;20661;-79
2020/12/19 01:00:58;;;;;;;28.52;16.85;;;3.20;99.90;;;;;;5102409;28;20229;-80
2020/12/19 01:03:24;;;;;;;26.88;16.83;;;3.20;99.90;;;;;;5098636;28;20201;-79
2020/12/19 01:05:51;;;;;;;29.38;17.98;;;3.10;99.90;;;;;;5105852;28;20280;-80
2020/12/19 01:08:20;;;;;;;27.98;18.85;;;3.20;99.90;;;;;;5103164;28;20296;-79
2020/12/19 01:10:46;;;;;;;26.58;17.55;;;3.20;99.90;;;;;;5109057;28;20251;-79
2020/12/19 01:13:13;;;;;;;30.48;19.73;;;3.20;99.90;;;;;;5116606;28;20194;-79
2020/12/19 01:15:39;;;;;;;29.20;19.33;;;3.30;99.90;;;;;;5115839;27;20222;-81
2020/12/19 01:18:06;;;;;;;33.63;20.25;;;3.30;99.90;;;;;;5110481;27;20206;-78
2020/12/19 01:20:32;;;;;;;31.50;18.75;;;3.20;99.90;;;;;;5114942;28;20200;-78
2020/12/19 01:23:00;;;;;;;29.52;20.17;;;3.10;99.90;;;;;;5098439;28;20257;-79
2020/12/19 01:25:26;;;;;;;25.67;17.67;;;3.30;99.90;;;;;;5114801;28;20201;-80
2020/12/19 01:27:52;;;;;;;29.50;18.27;;;3.40;99.90;;;;;;5111331;28;20695;-80
2020/12/19 01:30:19;;;;;;;28.30;18.17;;;3.40;99.90;;;;;;5108281;28;20205;-80
2020/12/19 01:32:45;;;;;;;31.10;18.58;;;3.50;99.90;;;;;;5101565;28;20212;-79
2020/12/19 01:35:11;;;;;;;28.80;18.45;;;3.60;99.90;;;;;;5107846;28;20739;-80
2020/12/19 01:37:38;;;;;;;23.85;17.05;;;3.60;99.90;;;;;;5104979;28;20230;-80
2020/12/19 01:40:05;;;;;;;24.40;16.73;;;3.60;99.90;;;;;;5109520;28;20203;-79
2020/12/19 01:42:32;;;;;;;26.23;18.10;;;3.70;99.90;;;;;;5110763;28;20237;-80
2020/12/19 01:44:58;;;;;;;26.92;18.42;;;3.80;99.90;;;;;;5109243;28;20240;-80
2020/12/19 01:47:26;;;;;;;26.10;18.17;;;3.70;99.90;;;;;;5105327;28;20233;-80
2020/12/19 01:49:53;;;;;;;25.35;17.80;;;3.60;99.90;;;;;;5097074;28;20200;-80
2020/12/19 01:52:23;;;;;;;22.60;16.73;;;3.50;99.90;;;;;;5096255;28;20707;-80
2020/12/19 01:54:50;;;;;;;23.52;17.20;;;3.60;99.90;;;;;;5097248;28;20225;-80
2020/12/19 01:57:19;;;;;;;26.83;18.48;;;3.50;99.90;;;;;;5099723;28;20201;-79
2020/12/19 01:59:45;;;;;;;28.50;18.90;;;3.50;99.90;;;;;;5100525;28;20213;-79
2020/12/19 02:02:12;;;;;;;23.55;16.80;;;3.60;99.90;;;;;;5099161;28;20291;-79
2020/12/19 02:04:52;;;;;;;24.00;17.00;;;3.60;99.90;;;;;;5100615;28;20203;-80
2020/12/19 02:07:19;;;;;;;28.17;17.60;;;3.60;99.90;;;;;;5111591;28;20212;-79
2020/12/19 02:09:49;;;;;;;25.60;17.80;;;3.70;99.90;;;;;;5115570;27;20205;-79
2020/12/19 02:12:15;;;;;;;23.08;17.13;;;3.70;99.90;;;;;;5116249;27;20211;-78
2020/12/19 02:14:42;;;;;;;20.85;15.40;;;3.70;99.90;;;;;;5111557;28;20218;-79
2020/12/19 02:17:13;;;;;;;24.50;18.73;;;3.80;99.90;;;;;;5112998;28;20196;-80
2020/12/19 02:19:40;;;;;;;23.38;15.77;;;3.80;99.90;;;;;;5108755;28;20230;-79
2020/12/19 02:22:08;;;;;;;23.95;17.20;;;3.80;99.90;;;;;;5106920;28;20273;-80
2020/12/19 02:24:35;;;;;;;20.92;16.13;;;3.70;99.90;;;;;;5108860;27;20236;-78
2020/12/19 02:27:02;;;;;;;23.30;16.45;;;3.70;99.90;;;;;;5116132;27;20473;-77
2020/12/19 02:29:31;;;;;;;26.33;19.27;;;3.60;99.90;;;;;;5107955;28;20206;-79
2020/12/19 02:31:59;;;;;;;26.08;17.77;;;3.50;99.90;;;;;;5105383;27;20209;-77
2020/12/19 02:34:26;;;;;;;24.58;16.48;;;3.40;99.90;;;;;;5098862;28;20577;-78
2020/12/19 02:36:52;;;;;;;20.13;16.52;;;3.50;99.90;;;;;;5097164;28;20294;-80
2020/12/19 02:39:19;;;;;;;25.30;18.55;;;3.60;99.90;;;;;;5108945;27;20225;-80
2020/12/19 02:41:47;;;;;;;23.15;16.85;;;3.80;99.90;;;;;;5116445;27;20229;-80
2020/12/19 02:44:15;;;;;;;21.92;16.70;;;3.70;99.90;;;;;;5108414;28;20190;-80
2020/12/19 02:46:42;;;;;;;26.95;17.83;;;3.60;99.90;;;;;;5113871;27;20233;-79
2020/12/19 02:49:08;;;;;;;22.98;18.35;;;3.70;99.90;;;;;;5106142;27;20205;-81
2020/12/19 02:51:35;;;;;;;23.17;17.38;;;3.60;99.90;;;;;;5100355;28;20289;-80
2020/12/19 02:54:01;;;;;;;20.98;16.17;;;3.70;99.90;;;;;;5099822;28;20201;-80
2020/12/19 02:56:28;;;;;;;23.35;17.38;;;3.70;99.90;;;;;;5100553;28;20260;-80
2020/12/19 02:58:55;;;;;;;24.20;17.10;;;3.80;99.90;;;;;;5094463;28;20574;-78
2020/12/19 03:01:27;;;;;;;22.35;17.83;;;3.80;99.90;;;;;;5094487;28;20218;-80
2020/12/19 03:03:53;;;;;;;22.17;17.08;;;3.90;99.90;;;;;;5098806;28;20205;-79
2020/12/19 03:06:20;;;;;;;23.48;18.27;;;4.00;99.90;;;;;;5096597;28;20284;-80
2020/12/19 03:08:46;;;;;;;22.33;16.70;;;3.90;99.90;;;;;;5102089;28;20295;-78
2020/12/19 03:11:13;;;;;;;26.15;19.08;;;3.90;99.90;;;;;;5102395;28;20302;-79
2020/12/19 03:13:39;;;;;;;24.67;18.13;;;3.90;99.90;;;;;;5106028;28;20205;-79
2020/12/19 03:16:07;;;;;;;20.15;16.67;;;3.70;99.90;;;;;;5094825;28;20771;-79
2020/12/19 03:18:33;;;;;;;21.55;16.45;;;3.60;99.90;;;;;;5094708;28;20235;-80
2020/12/19 03:21:00;;;;;;;21.13;16.85;;;3.70;99.90;;;;;;5094077;28;20205;-79
2020/12/19 03:23:26;;;;;;;24.08;17.67;;;3.80;99.90;;;;;;5092757;28;20567;-79
2020/12/19 03:25:53;;;;;;;24.02;17.95;;;3.80;99.90;;;;;;5092870;28;20339;-80
2020/12/19 03:28:20;;;;;;;21.95;17.15;;;3.80;99.90;;;;;;5098962;28;20201;-80
2020/12/19 03:30:47;;;;;;;23.27;18.55;;;3.90;99.90;;;;;;5097956;28;20275;-79
2020/12/19 03:33:14;;;;;;;20.25;16.52;;;3.80;99.90;;;;;;5094649;28;20256;-80
2020/12/19 03:35:40;;;;;;;23.70;16.85;;;3.70;99.90;;;;;;5093353;28;20299;-79
2020/12/19 03:38:08;;;;;;;21.05;16.02;;;3.70;99.90;;;;;;5092590;28;20292;-79
2020/12/19 03:40:34;;;;;;;21.15;15.38;;;3.60;99.90;;;;;;5097129;28;20209;-79
2020/12/19 03:43:01;;;;;;;20.70;16.10;;;3.50;99.90;;;;;;5098379;28;20247;-79
2020/12/19 03:45:27;;;;;;;20.63;15.98;;;3.50;99.90;;;;;;5097913;28;20692;-79
2020/12/19 03:47:54;;;;;;;20.80;15.10;;;3.50;99.90;;;;;;5097288;28;20201;-78
2020/12/19 03:50:21;;;;;;;21.00;15.82;;;3.50;99.90;;;;;;5093314;28;20208;-78
2020/12/19 03:52:48;;;;;;;20.45;15.68;;;3.50;99.90;;;;;;5092758;28;20288;-79
2020/12/19 03:55:14;;;;;;;22.58;15.45;;;3.60;99.90;;;;;;5092704;28;20313;-79
2020/12/19 03:57:41;;;;;;;20.10;15.93;;;3.60;99.90;;;;;;5093381;28;20241;-77
2020/12/19 04:00:08;;;;;;;20.20;15.45;;;3.60;99.90;;;;;;5094893;28;20215;-79
2020/12/19 04:02:35;;;;;;;20.63;16.33;;;3.60;99.90;;;;;;5096845;28;20227;-79
2020/12/19 04:05:03;;;;;;;23.40;17.08;;;3.70;99.90;;;;;;5096018;28;20235;-80
2020/12/19 04:07:30;;;;;;;21.63;17.05;;;3.60;99.90;;;;;;5094631;28;20254;-79
2020/12/19 04:09:56;;;;;;;23.15;16.52;;;3.50;99.90;;;;;;5097374;28;20247;-78
2020/12/19 04:12:23;;;;;;;18.67;15.20;;;3.50;99.90;;;;;;5100377;28;20220;-79
2020/12/19 04:14:49;;;;;;;19.40;14.27;;;3.50;99.90;;;;;;5112002;28;20230;-78
2020/12/19 04:17:16;;;;;;;21.15;15.45;;;3.30;99.90;;;;;;5112966;28;20209;-78
2020/12/19 04:19:42;;;;;;;20.25;15.57;;;3.30;99.90;;;;;;5113143;28;20285;-77
2020/12/19 04:22:09;;;;;;;22.08;16.75;;;3.30;99.90;;;;;;5116093;28;20226;-81
2020/12/19 04:24:36;;;;;;;20.13;15.57;;;3.20;99.90;;;;;;5114180;28;20222;-79
2020/12/19 04:27:03;;;;;;;21.92;15.50;;;3.20;99.90;;;;;;5111235;28;20209;-79
2020/12/19 04:29:31;;;;;;;20.20;15.93;;;3.20;99.90;;;;;;5117279;28;20217;-80
2020/12/19 04:31:58;;;;;;;22.33;15.77;;;3.20;99.90;;;;;;5117701;28;20315;-80
2020/12/19 04:34:25;;;;;;;21.20;15.07;;;3.10;99.90;;;;;;5117657;28;20201;-80
2020/12/19 04:36:52;;;;;;;21.58;15.75;;;3.10;99.90;;;;;;5116535;28;20283;-80
2020/12/19 04:39:18;;;;;;;19.65;15.15;;;3.10;99.90;;;;;;5117443;28;20196;-79
2020/12/19 04:41:46;;;;;;;23.58;17.23;;;3.00;99.90;;;;;;5114964;28;20225;-79
2020/12/19 04:44:12;;;;;;;24.75;16.88;;;3.00;99.90;;;;;;5113094;28;20255;-79
2020/12/19 04:46:41;;;;;;;22.02;17.95;;;3.00;99.90;;;;;;5111971;28;20257;-77
2020/12/19 04:49:08;;;;;;;26.40;19.63;;;2.80;99.90;;;;;;5112549;28;20239;-79
2020/12/19 04:51:35;;;;;;;23.67;18.40;;;2.70;99.90;;;;;;5113633;28;20205;-79
2020/12/19 04:54:02;;;;;;;23.52;18.73;;;2.70;99.90;;;;;;5106153;28;20266;-78
2020/12/19 04:56:29;;;;;;;28.92;18.67;;;2.70;99.90;;;;;;5105178;28;20284;-80
2020/12/19 04:58:58;;;;;;;24.83;18.15;;;2.80;99.90;;;;;;5117853;27;20199;-81
2020/12/19 05:01:25;;;;;;;23.52;17.13;;;2.80;99.90;;;;;;5117551;27;20224;-80
2020/12/19 05:03:52;;;;;;;23.83;17.70;;;2.80;99.90;;;;;;5110712;28;20228;-81
2020/12/19 05:06:19;;;;;;;25.42;18.90;;;2.80;99.90;;;;;;5114806;28;20681;-79
2020/12/19 05:08:46;;;;;;;21.08;16.63;;;2.70;99.90;;;;;;5107263;28;20229;-78
2020/12/19 05:11:14;;;;;;;25.70;18.83;;;2.70;99.90;;;;;;5100029;28;20664;-78
2020/12/19 05:13:42;;;;;;;26.92;19.88;;;2.70;99.90;;;;;;5100341;28;20300;-79
2020/12/19 05:16:11;;;;;;;23.98;17.75;;;2.70;99.90;;;;;;5098165;28;20649;-78
2020/12/19 05:18:38;;;;;;;24.45;17.17;;;2.70;99.90;;;;;;5098667;28;20743;-79
2020/12/19 05:21:05;;;;;;;23.85;17.70;;;2.60;99.90;;;;;;5098109;28;20208;-79
2020/12/19 05:23:34;;;;;;;24.38;17.70;;;2.70;99.90;;;;;;5097945;28;20228;-80
2020/12/19 05:26:01;;;;;;;23.23;18.85;;;2.70;99.90;;;;;;5099804;28;20469;-78
2020/12/19 05:28:28;;;;;;;21.95;17.15;;;2.70;99.90;;;;;;5097890;28;20304;-81
2020/12/19 05:30:58;;;;;;;23.27;18.30;;;2.70;99.90;;;;;;5096192;28;20288;-77
2020/12/19 05:33:30;;;;;;;25.13;19.10;;;2.70;99.90;;;;;;5095020;28;20715;-78
2020/12/19 05:35:56;;;;;;;19.33;16.08;;;2.70;99.90;;;;;;5125525;22;20240;-78
2020/12/19 05:38:26;;;;;;;21.92;17.95;;;2.70;99.90;;;;;;5078837;28;20245;-79
2020/12/19 05:40:52;;;;;;;21.92;17.35;;;2.70;99.90;;;;;;5076466;28;20280;-79
2020/12/19 05:43:19;;;;;;;27.60;19.73;;;2.60;99.90;;;;;;5075452;28;20249;-79
2020/12/19 05:45:45;;;;;;;25.55;19.10;;;2.60;99.90;;;;;;5077563;28;20249;-79
2020/12/19 05:48:11;;;;;;;24.27;18.77;;;2.50;99.90;;;;;;5076319;28;20229;-80
2020/12/19 05:50:40;;;;;;;24.42;18.23;;;2.50;99.90;;;;;;5076674;28;20332;-80
2020/12/19 05:53:08;;;;;;;24.30;18.67;;;2.50;99.90;;;;;;5077996;28;20315;-80
2020/12/19 05:55:35;;;;;;;28.48;18.38;;;2.40;99.90;;;;;;5078302;28;20226;-79
2020/12/19 05:58:04;;;;;;;27.30;19.70;;;2.40;99.90;;;;;;5092125;28;20194;-79
2020/12/19 06:00:31;;;;;;;23.25;16.75;;;2.30;99.90;;;;;;5095009;28;20209;-79
2020/12/19 06:03:01;;;;;;;26.17;19.00;;;2.30;99.90;;;;;;5088654;28;20259;-79
2020/12/19 06:05:29;;;;;;;25.83;18.98;;;2.20;99.90;;;;;;5080971;28;20252;-79
2020/12/19 06:07:58;;;;;;;22.23;17.67;;;2.20;99.90;;;;;;5076238;28;20297;-79
2020/12/19 06:10:25;;;;;;;23.65;16.90;;;2.30;99.90;;;;;;5075983;28;20285;-79
2020/12/19 06:12:55;;;;;;;21.63;16.30;;;2.30;99.90;;;;;;5076456;28;20225;-79
2020/12/19 06:15:48;;;;;;;20.75;15.40;;;2.30;99.90;;;;;;5076704;28;20287;-80
2020/12/19 06:18:22;;;;;;;27.75;17.70;;;2.30;99.90;;;;;;5074393;28;20260;-79
2020/12/19 06:20:50;;;;;;;20.02;15.50;;;2.30;99.90;;;;;;5079714;28;20224;-79
2020/12/19 06:23:17;;;;;;;22.77;17.05;;;2.30;99.90;;;;;;5080854;28;20248;-80
2020/12/19 06:25:45;;;;;;;24.10;17.85;;;2.30;99.90;;;;;;5087131;28;20236;-79
2020/12/19 06:28:12;;;;;;;23.15;16.67;;;2.20;99.90;;;;;;5086195;28;20218;-79
2020/12/19 06:30:39;;;;;;;16.60;14.27;;;2.30;99.90;;;;;;5082689;28;20233;-80
2020/12/19 06:33:10;;;;;;;21.42;16.08;;;2.20;99.90;;;;;;5078987;28;20284;-81
2020/12/19 06:35:36;;;;;;;24.45;16.08;;;2.30;99.90;;;;;;5074935;28;20244;-79
2020/12/19 06:38:03;;;;;;;19.80;14.90;;;2.30;99.90;;;;;;5073854;28;20260;-79
2020/12/19 06:40:38;;;;;;;22.10;16.73;;;2.30;99.90;;;;;;5079146;28;20339;-80
2020/12/19 06:43:12;;;;;;;21.33;16.15;;;2.20;99.90;;;;;;5093589;28;20221;-81
2020/12/19 06:45:39;;;;;;;19.80;15.98;;;2.20;99.90;;;;;;5093422;28;20243;-79
2020/12/19 06:48:27;;;;;;;22.23;15.63;;;2.10;99.90;;;;;;5084750;28;20246;-80
2020/12/19 06:50:59;;;;;;;22.05;15.30;;;2.20;99.90;;;;;;5075552;28;20288;-80
2020/12/19 06:53:27;;;;;;;23.48;16.95;;;2.10;99.90;;;;;;5074197;28;20210;-80
2020/12/19 06:55:54;;;;;;;22.85;16.20;;;2.20;99.90;;;;;;5073534;28;20669;-80
2020/12/19 06:58:32;;;;;;;21.75;15.73;;;2.20;99.90;;;;;;5073944;28;20324;-80
2020/12/19 07:01:00;;;;;;;20.25;16.27;;;2.20;99.90;;;;;;5073654;28;20248;-79
2020/12/19 07:03:40;;;;;;;21.98;15.85;;;2.20;99.90;;;;;;5073915;28;20261;-79
2020/12/19 07:06:14;;;;;;;18.88;15.13;;;2.20;99.90;;;;;;5073780;28;20534;-79
2020/12/19 07:08:41;;;;;;;21.85;16.13;;;2.20;99.90;;;;;;5076180;28;20622;-79
2020/12/19 07:11:13;;;;;;;22.17;15.60;;;2.10;99.90;;;;;;5079098;28;20625;-80
2020/12/19 07:13:57;;;;;;;20.83;15.43;;;2.20;99.90;;;;;;5082158;28;20228;-79
2020/12/19 07:16:42;;;;;;;24.63;15.32;;;2.10;99.90;;;;;;5081937;28;20265;-80
2020/12/19 07:19:15;;;;;;;20.80;15.80;;;2.10;99.90;;;;;;5082519;28;20256;-79
2020/12/19 07:21:42;;;;;;;19.80;15.93;;;2.10;99.90;;;;;;5087381;28;20285;-80
2020/12/19 07:24:08;;;;;;;25.33;15.45;;;2.10;99.90;;;;;;5091524;28;20198;-80
2020/12/19 07:26:36;;;;;;;20.88;15.43;;;2.10;99.90;;;;;;5092376;28;20242;-80
2020/12/19 07:29:03;;;;;;;18.42;14.70;;;2.00;99.90;;;;;;5091801;28;20231;-80
2020/12/19 07:31:30;;;;;;;19.15;15.38;;;2.10;99.90;;;;;;5087489;28;20271;-81
2020/12/19 07:33:56;;;;;;;26.17;17.00;;;2.10;99.90;;;;;;5079196;28;20241;-80
2020/12/19 07:36:24;;;;;;;37.55;20.15;;;2.00;99.90;;;;;;5081290;28;20660;-80
2020/12/19 07:38:51;;;;;;;30.90;18.42;;;2.00;99.90;;;;;;5083668;28;20229;-81
2020/12/19 07:41:18;;;;;;;27.42;18.95;;;2.00;99.90;;;;;;5084984;28;20210;-79
2020/12/19 07:43:45;;;;;;;26.77;16.92;;;2.00;99.90;;;;;;5088610;28;20244;-79
2020/12/19 07:46:11;;;;;;;26.70;19.10;;;2.10;99.90;;;;;;5089815;28;20275;-80
2020/12/19 07:48:38;;;;;;;28.08;17.70;;;2.10;99.90;;;;;;5089587;28;20228;-79
2020/12/19 07:51:07;;;;;;;23.30;17.63;;;2.10;99.90;;;;;;5093222;28;20249;-79
2020/12/19 07:53:42;;;;;;;22.10;16.83;;;2.20;99.90;;;;;;5095558;28;20212;-79
2020/12/19 07:56:12;;;;;;;26.25;18.77;;;2.20;99.90;;;;;;5096078;28;20218;-81
2020/12/19 07:58:40;;;;;;;29.58;20.45;;;2.30;99.90;;;;;;5098368;28;20194;-80
2020/12/19 08:01:07;;;;;;;25.23;19.50;;;2.30;99.90;;;;;;5099178;28;20231;-80
2020/12/19 08:03:34;;;;;;;29.65;19.45;;;2.30;99.90;;;;;;5098948;28;20225;-80
2020/12/19 08:06:00;;;;;;;25.30;19.30;;;2.40;99.90;;;;;;5098623;28;20485;-81
2020/12/19 08:08:27;;;;;;;25.02;18.83;;;2.40;99.90;;;;;;5098023;28;20214;-80
2020/12/19 08:11:00;;;;;;;26.80;19.58;;;2.50;99.90;;;;;;5092287;28;20205;-80
2020/12/19 08:13:27;;;;;;;27.40;18.50;;;2.50;99.90;;;;;;5094229;28;20265;-79
2020/12/19 08:15:55;;;;;;;25.58;18.17;;;2.60;99.90;;;;;;5095627;28;20260;-79
2020/12/19 08:18:24;;;;;;;25.25;20.00;;;2.60;99.90;;;;;;5087961;28;20205;-80
2020/12/19 08:20:51;;;;;;;22.80;19.33;;;2.60;99.90;;;;;;5083606;28;20634;-79
2020/12/19 08:23:17;;;;;;;29.73;20.23;;;2.70;99.90;;;;;;5085862;28;20627;-79
2020/12/19 08:25:50;;;;;;;32.35;21.15;;;2.70;99.90;;;;;;5086178;28;20249;-80
2020/12/19 08:28:21;;;;;;;29.52;20.95;;;2.70;99.90;;;;;;5091588;28;20216;-80
2020/12/19 08:30:47;;;;;;;28.20;19.52;;;2.90;99.90;;;;;;5092681;28;20209;-80
2020/12/19 08:33:14;;;;;;;27.73;19.70;;;3.00;99.90;;;;;;5093619;28;20206;-80
2020/12/19 08:35:43;;;;;;;26.08;19.92;;;3.00;99.90;;;;;;5093990;28;20241;-81
2020/12/19 08:38:12;;;;;;;22.92;19.58;;;3.10;99.90;;;;;;5093124;28;20241;-80
2020/12/19 08:40:42;;;;;;;23.00;18.38;;;3.20;99.90;;;;;;5087925;28;20213;-81
2020/12/19 08:43:10;;;;;;;26.23;18.45;;;3.20;99.90;;;;;;5086460;28;20222;-79
2020/12/19 08:45:38;;;;;;;24.92;18.33;;;3.20;99.90;;;;;;5092946;28;20222;-82
2020/12/19 08:48:07;;;;;;;21.70;16.02;;;3.20;99.90;;;;;;5091861;28;20252;-80
2020/12/19 08:50:38;;;;;;;20.75;15.95;;;3.40;99.90;;;;;;5097785;28;20209;-79
2020/12/19 08:53:19;;;;;;;21.45;17.13;;;3.40;99.90;;;;;;5098550;28;20174;-81
2020/12/19 08:55:46;;;;;;;20.85;16.17;;;3.50;99.90;;;;;;5097586;28;20239;-81
2020/12/19 08:58:23;;;;;;;20.50;17.20;;;3.60;99.90;;;;;;5097795;28;20189;-79
2020/12/19 09:00:50;;;;;;;24.02;18.80;;;3.70;99.90;;;;;;5097810;28;20677;-80
2020/12/19 09:03:25;;;;;;;22.20;17.52;;;3.80;99.90;;;;;;5091439;28;20253;-80
2020/12/19 09:05:58;;;;;;;24.40;16.80;;;3.80;99.90;;;;;;5090267;28;20658;-79
2020/12/19 09:08:32;;;;;;;23.27;17.25;;;3.90;99.90;;;;;;5083730;28;20264;-78
2020/12/19 09:10:58;;;;;;;21.73;16.73;;;4.00;99.90;;;;;;5081281;28;20211;-79
2020/12/19 09:13:25;;;;;;;19.95;15.73;;;4.10;99.90;;;;;;5079826;28;20283;-79
2020/12/19 09:15:54;;;;;;;26.88;18.27;;;4.20;99.90;;;;;;5083113;28;20241;-80
2020/12/19 09:18:23;;;;;;;19.65;14.77;;;4.20;99.90;;;;;;5080666;28;20272;-80
2020/12/19 09:20:58;;;;;;;22.27;15.15;;;4.30;99.90;;;;;;5079352;28;20210;-79
2020/12/19 09:23:26;;;;;;;19.30;15.25;;;4.40;99.90;;;;;;5080327;28;20739;-80
2020/12/19 09:25:54;;;;;;;17.73;15.05;;;4.60;99.90;;;;;;5077909;28;20230;-80
2020/12/19 09:28:21;;;;;;;19.75;15.90;;;4.70;99.90;;;;;;5078766;28;20205;-79
2020/12/19 09:30:48;;;;;;;18.80;15.82;;;4.80;99.90;;;;;;5094409;28;20208;-80
2020/12/19 09:33:15;;;;;;;17.55;14.43;;;5.00;99.90;;;;;;5095417;28;20234;-80
2020/12/19 09:35:42;;;;;;;18.02;15.60;;;5.30;99.90;;;;;;5083431;28;20322;-80
2020/12/19 09:38:08;;;;;;;17.85;14.50;;;5.50;99.90;;;;;;5078047;28;20582;-80
2020/12/19 09:40:36;;;;;;;15.82;13.40;;;5.70;99.90;;;;;;5078265;28;20310;-79
2020/12/19 09:43:03;;;;;;;16.25;13.70;;;5.90;99.90;;;;;;5077734;28;20223;-80
2020/12/19 09:45:29;;;;;;;13.68;12.25;;;6.10;99.90;;;;;;5086666;28;20223;-80
2020/12/19 09:47:56;;;;;;;15.20;13.30;;;6.30;99.90;;;;;;5087954;28;20208;-79
2020/12/19 09:50:24;;;;;;;16.58;13.32;;;6.50;99.90;;;;;;5081932;28;20298;-80
2020/12/19 09:52:51;;;;;;;12.82;11.43;;;6.70;99.00;;;;;;5085981;28;20215;-80
2020/12/19 09:55:18;;;;;;;15.32;12.95;;;6.90;97.30;;;;;;5083939;28;20208;-80
2020/12/19 09:57:46;;;;;;;16.23;13.35;;;7.00;94.60;;;;;;5079216;28;20253;-79
2020/12/19 10:00:14;;;;;;;15.35;13.43;;;7.00;93.30;;;;;;5076711;28;20204;-79
2020/12/19 10:02:41;;;;;;;14.18;11.15;;;7.10;92.00;;;;;;5077392;28;20319;-79
2020/12/19 10:05:08;;;;;;;17.65;12.80;;;7.20;90.60;;;;;;5081580;28;20211;-79
2020/12/19 10:07:35;;;;;;;14.38;11.80;;;7.20;89.20;;;;;;5076305;28;20299;-80
2020/12/19 10:10:02;;;;;;;14.48;12.55;;;7.40;87.40;;;;;;5076173;28;20215;-80
2020/12/19 10:12:31;;;;;;;12.25;11.00;;;7.30;85.20;;;;;;5076208;28;20289;-80
2020/12/19 10:14:59;;;;;;;14.32;11.25;;;7.50;84.50;;;;;;5075949;28;20208;-79
2020/12/19 10:17:25;;;;;;;14.75;11.05;;;7.60;83.70;;;;;;5079882;28;20312;-81
2020/12/19 10:19:51;;;;;;;13.18;10.95;;;7.80;83.80;;;;;;5078985;28;20582;-79
2020/12/19 10:22:18;;;;;;;13.25;11.48;;;7.70;81.90;;;;;;5078448;28;20757;-79
2020/12/19 10:24:44;;;;;;;13.02;11.00;;;7.90;81.50;;;;;;5089739;28;20220;-80
2020/12/19 10:27:11;;;;;;;15.85;12.88;;;8.00;80.40;;;;;;5094331;28;20224;-81
2020/12/19 10:29:38;;;;;;;14.18;12.20;;;8.10;79.40;;;;;;5092359;28;20706;-79
2020/12/19 10:32:10;;;;;;;15.30;11.38;;;8.20;77.70;;;;;;5083380;28;20573;-80
2020/12/19 10:34:36;;;;;;;14.00;11.60;;;8.40;75.90;;;;;;5079285;28;20631;-80
2020/12/19 10:37:03;;;;;;;14.00;10.95;;;8.30;75.80;;;;;;5077770;28;20347;-80
2020/12/19 10:39:30;;;;;;;15.05;11.18;;;8.40;76.40;;;;;;5080321;28;20201;-79
2020/12/19 10:41:57;;;;;;;13.25;10.80;;;8.50;76.00;;;;;;5079237;28;20247;-80
2020/12/19 10:44:24;;;;;;;12.50;11.25;;;8.60;76.00;;;;;;5080297;28;20216;-79
2020/12/19 10:46:50;;;;;;;12.43;10.60;;;8.60;75.90;;;;;;5082909;28;20232;-80
2020/12/19 10:49:17;;;;;;;12.00;10.10;;;8.20;75.70;;;;;;5079800;28;20377;-80
2020/12/19 10:51:44;;;;;;;15.65;14.15;;;8.40;76.70;;;;;;5083103;28;20242;-80
2020/12/19 10:54:10;;;;;;;15.95;14.40;;;8.40;75.90;;;;;;5083015;28;20267;-80
2020/12/19 10:56:37;;;;;;;12.85;11.40;;;8.50;76.00;;;;;;5081259;28;20220;-80
2020/12/19 10:59:03;;;;;;;12.50;11.20;;;8.50;73.60;;;;;;5081458;28;20227;-80
2020/12/19 11:01:29;;;;;;;13.52;10.82;;;8.60;76.00;;;;;;5083480;28;20623;-80
2020/12/19 11:03:56;;;;;;;16.75;12.77;;;8.70;74.80;;;;;;5081026;28;20224;-80
2020/12/19 11:06:25;;;;;;;16.02;12.23;;;8.80;74.70;;;;;;5079252;28;20261;-80
2020/12/19 11:08:52;;;;;;;18.75;13.68;;;8.90;72.60;;;;;;5078541;28;20217;-80
2020/12/19 11:11:20;;;;;;;17.98;12.10;;;8.90;72.50;;;;;;5079850;28;20208;-80
2020/12/19 11:13:48;;;;;;;17.52;12.80;;;8.70;72.20;;;;;;5081485;28;20204;-80
2020/12/19 11:16:21;;;;;;;14.73;11.30;;;8.60;72.80;;;;;;5082394;28;20837;-80
2020/12/19 11:18:47;;;;;;;13.07;11.45;;;8.20;75.70;;;;;;5083589;28;20188;-81
2020/12/19 11:21:14;;;;;;;13.80;12.30;;;8.30;76.40;;;;;;5087285;28;20270;-80
2020/12/19 11:23:41;;;;;;;13.63;12.15;;;8.40;75.90;;;;;;5087007;28;20220;-80
2020/12/19 11:26:08;;;;;;;14.60;12.32;;;8.30;75.80;;;;;;5083932;28;20253;-78
2020/12/19 11:28:34;;;;;;;14.63;12.70;;;8.40;75.90;;;;;;5083642;28;20204;-79
2020/12/19 11:31:00;;;;;;;14.20;12.70;;;8.00;76.60;;;;;;5085079;28;20229;-79
2020/12/19 11:33:27;;;;;;;15.52;12.38;;;8.00;79.00;;;;;;5079433;28;20227;-79
2020/12/19 11:35:53;;;;;;;14.38;12.60;;;7.90;79.60;;;;;;5075003;28;20293;-80
2020/12/19 11:38:20;;;;;;;15.38;12.50;;;7.80;80.70;;;;;;5076048;28;20577;-80
2020/12/19 11:40:47;;;;;;;18.60;14.27;;;7.70;81.50;;;;;;5077432;28;20290;-78
2020/12/19 11:43:14;;;;;;;22.67;15.95;;;7.80;82.00;;;;;;5077020;28;20468;-80
2020/12/19 11:45:40;;;;;;;20.08;16.13;;;7.60;83.70;;;;;;5075913;28;20836;-79
2020/12/19 11:48:06;;;;;;;18.70;15.38;;;7.60;85.40;;;;;;5084291;28;20220;-79
2020/12/19 11:50:33;;;;;;;19.35;14.85;;;7.70;85.60;;;;;;5094127;28;20187;-79
2020/12/19 11:52:59;;;;;;;17.98;14.13;;;7.80;86.90;;;;;;5089600;28;20252;-80
2020/12/19 11:55:26;;;;;;;18.40;14.20;;;8.10;86.00;;;;;;5075994;28;20315;-80
2020/12/19 11:57:53;;;;;;;15.63;12.27;;;8.30;85.50;;;;;;5077801;28;20263;-80
2020/12/19 12:00:19;;;;;;;14.20;12.70;;;8.40;84.30;;;;;;5075613;28;20676;-80
2020/12/19 12:02:46;;;;;;;19.75;15.25;;;8.50;81.20;;;;;;5076072;28;20227;-80
2020/12/19 12:05:12;;;;;;;15.88;14.00;;;8.60;80.50;;;;;;5077553;28;20259;-81
2020/12/19 12:07:39;;;;;;;14.80;13.20;;;8.80;80.10;;;;;;5075469;28;20319;-81
2020/12/19 12:10:05;;;;;;;15.38;12.60;;;9.00;78.00;;;;;;5076364;28;20367;-80
2020/12/19 12:12:32;;;;;;;16.05;13.50;;;9.10;76.00;;;;;;5075482;28;20235;-79
2020/12/19 12:14:59;;;;;;;13.90;12.50;;;9.20;75.60;;;;;;5075618;28;20266;-80
2020/12/19 12:17:25;;;;;;;15.90;12.88;;;9.30;73.70;;;;;;5075971;28;20616;-81
2020/12/19 12:19:52;;;;;;;15.48;12.60;;;9.50;72.50;;;;;;5086930;28;20234;-79
2020/12/19 12:22:18;;;;;;;16.02;13.38;;;9.40;71.50;;;;;;5091563;28;20224;-80
2020/12/19 12:24:44;;;;;;;13.90;11.75;;;9.10;73.60;;;;;;5091228;28;20433;-80
2020/12/19 12:27:11;;;;;;;14.93;12.80;;;9.10;74.00;;;;;;5086050;28;20247;-80
2020/12/19 12:29:38;;;;;;;15.27;12.60;;;9.00;74.10;;;;;;5084998;28;20279;-80
2020/12/19 12:32:05;;;;;;;17.95;14.38;;;9.00;74.30;;;;;;5081556;28;20235;-79
2020/12/19 12:34:32;;;;;;;14.38;12.70;;;9.00;74.70;;;;;;5081629;28;20204;-78
2020/12/19 12:36:58;;;;;;;15.95;12.15;;;9.40;73.40;;;;;;5086042;28;20235;-79
2020/12/19 12:39:25;;;;;;;17.73;12.77;;;9.50;71.80;;;;;;5083621;28;20198;-80